sensor_id;sensor_type;location;lat;lon;timestamp;temperature;humidity
67901;DHT22;54700;51.796;10.956;2024-01-15T00:02:25;1.60;97.60
67901;DHT22;54700;51.796;10.956;2024-01-15T00:04:54;1.60;98.10
67901;DHT22;54700;51.796;10.956;2024-01-15T00:07:20;1.60;98.20
67901;DHT22;54700;51.796;10.956;2024-01-15T00:09:47;1.60;97.70
67901;DHT22;54700;51.796;10.956;2024-01-15T00:12:14;1.60;97.20
67901;DHT22;54700;51.796;10.956;2024-01-15T00:14:41;1.60;97.30
67901;DHT22;54700;51.796;10.956;2024-01-15T00:17:08;1.70;96.90
67901;DHT22;54700;51.796;10.956;2024-01-15T00:19:35;1.70;96.60
67901;DHT22;54700;51.796;10.956;2024-01-15T00:22:03;1.70;96.30
67901;DHT22;54700;51.796;10.956;2024-01-15T00:24:30;1.70;96.00
67901;DHT22;54700;51.796;10.956;2024-01-15T00:26:57;1.80;95.70
67901;DHT22;54700;51.796;10.956;2024-01-15T00:29:24;1.80;95.90
67901;DHT22;54700;51.796;10.956;2024-01-15T00:31:51;1.80;94.70
67901;DHT22;54700;51.796;10.956;2024-01-15T00:34:18;1.90;95.00
67901;DHT22;54700;51.796;10.956;2024-01-15T00:36:44;1.90;95.10
67901;DHT22;54700;51.796;10.956;2024-01-15T00:39:13;1.80;94.90
67901;DHT22;54700;51.796;10.956;2024-01-15T00:41:39;1.90;95.00
67901;DHT22;54700;51.796;10.956;2024-01-15T00:44:06;1.80;95.00
67901;DHT22;54700;51.796;10.956;2024-01-15T00:46:33;1.80;94.70
67901;DHT22;54700;51.796;10.956;2024-01-15T00:49:09;1.80;95.10
67901;DHT22;54700;51.796;10.956;2024-01-15T00:51:36;1.80;95.40
67901;DHT22;54700;51.796;10.956;2024-01-15T00:54:03;1.80;95.30
67901;DHT22;54700;51.796;10.956;2024-01-15T00:56:32;1.80;95.30
67901;DHT22;54700;51.796;10.956;2024-01-15T00:59:00;1.80;95.40
67901;DHT22;54700;51.796;10.956;2024-01-15T01:01:27;1.80;94.60
67901;DHT22;54700;51.796;10.956;2024-01-15T01:03:54;1.90;94.30
67901;DHT22;54700;51.796;10.956;2024-01-15T01:06:21;1.90;94.70
67901;DHT22;54700;51.796;10.956;2024-01-15T01:08:48;1.90;94.20
67901;DHT22;54700;51.796;10.956;2024-01-15T01:11:15;1.90;94.60
67901;DHT22;54700;51.796;10.956;2024-01-15T01:13:43;1.90;95.00
67901;DHT22;54700;51.796;10.956;2024-01-15T01:16:10;1.90;95.00
67901;DHT22;54700;51.796;10.956;2024-01-15T01:18:37;1.80;95.10
67901;DHT22;54700;51.796;10.956;2024-01-15T01:21:04;1.80;95.30
67901;DHT22;54700;51.796;10.956;2024-01-15T01:23:31;1.80;95.90
67901;DHT22;54700;51.796;10.956;2024-01-15T01:25:58;1.80;96.70
67901;DHT22;54700;51.796;10.956;2024-01-15T01:28:25;1.70;97.70
67901;DHT22;54700;51.796;10.956;2024-01-15T01:30:53;1.70;97.90
67901;DHT22;54700;51.796;10.956;2024-01-15T01:33:20;1.70;98.40
67901;DHT22;54700;51.796;10.956;2024-01-15T01:35:48;1.60;98.40
67901;DHT22;54700;51.796;10.956;2024-01-15T01:38:15;1.60;98.30
67901;DHT22;54700;51.796;10.956;2024-01-15T01:40:41;1.60;98.40
67901;DHT22;54700;51.796;10.956;2024-01-15T01:43:10;1.60;97.50
67901;DHT22;54700;51.796;10.956;2024-01-15T01:45:37;1.60;97.40
67901;DHT22;54700;51.796;10.956;2024-01-15T01:48:06;1.70;96.10
67901;DHT22;54700;51.796;10.956;2024-01-15T01:50:34;1.70;95.50
67901;DHT22;54700;51.796;10.956;2024-01-15T01:53:01;1.70;95.70
67901;DHT22;54700;51.796;10.956;2024-01-15T01:55:29;1.70;95.40
67901;DHT22;54700;51.796;10.956;2024-01-15T01:57:59;1.80;95.20
67901;DHT22;54700;51.796;10.956;2024-01-15T02:00:27;1.80;94.30
67901;DHT22;54700;51.796;10.956;2024-01-15T02:02:54;1.80;94.60
67901;DHT22;54700;51.796;10.956;2024-01-15T02:05:23;1.80;94.20
67901;DHT22;54700;51.796;10.956;2024-01-15T02:07:50;1.80;94.10
67901;DHT22;54700;51.796;10.956;2024-01-15T02:10:17;1.80;94.30
67901;DHT22;54700;51.796;10.956;2024-01-15T02:12:44;1.80;93.60
67901;DHT22;54700;51.796;10.956;2024-01-15T02:15:13;1.90;92.00
67901;DHT22;54700;51.796;10.956;2024-01-15T02:17:56;1.90;92.20
67901;DHT22;54700;51.796;10.956;2024-01-15T02:20:25;1.80;91.80
67901;DHT22;54700;51.796;10.956;2024-01-15T02:22:52;1.80;91.60
67901;DHT22;54700;51.796;10.956;2024-01-15T02:25:23;1.70;90.70
67901;DHT22;54700;51.796;10.956;2024-01-15T02:27:50;1.70;90.60
67901;DHT22;54700;51.796;10.956;2024-01-15T02:30:17;1.70;90.00
67901;DHT22;54700;51.796;10.956;2024-01-15T02:32:44;1.60;87.70
67901;DHT22;54700;51.796;10.956;2024-01-15T02:35:11;1.60;87.10
67901;DHT22;54700;51.796;10.956;2024-01-15T02:37:38;1.50;86.50
67901;DHT22;54700;51.796;10.956;2024-01-15T02:40:06;1.50;85.10
67901;DHT22;54700;51.796;10.956;2024-01-15T02:42:35;1.40;85.00
67901;DHT22;54700;51.796;10.956;2024-01-15T02:45:02;1.40;84.10
67901;DHT22;54700;51.796;10.956;2024-01-15T02:47:29;1.30;82.90
67901;DHT22;54700;51.796;10.956;2024-01-15T02:49:56;1.30;82.60
67901;DHT22;54700;51.796;10.956;2024-01-15T02:52:23;1.40;82.90
67901;DHT22;54700;51.796;10.956;2024-01-15T02:54:50;1.30;83.70
67901;DHT22;54700;51.796;10.956;2024-01-15T02:57:17;1.30;83.90
67901;DHT22;54700;51.796;10.956;2024-01-15T02:59:45;1.30;84.40
67901;DHT22;54700;51.796;10.956;2024-01-15T03:02:12;1.30;85.40
67901;DHT22;54700;51.796;10.956;2024-01-15T03:04:42;1.30;85.40
67901;DHT22;54700;51.796;10.956;2024-01-15T03:07:09;1.30;85.70
67901;DHT22;54700;51.796;10.956;2024-01-15T03:09:36;1.30;85.30
67901;DHT22;54700;51.796;10.956;2024-01-15T03:12:03;1.30;84.10
67901;DHT22;54700;51.796;10.956;2024-01-15T03:14:30;1.30;83.70
67901;DHT22;54700;51.796;10.956;2024-01-15T03:16:58;1.40;83.30
67901;DHT22;54700;51.796;10.956;2024-01-15T03:19:26;1.40;82.70
67901;DHT22;54700;51.796;10.956;2024-01-15T03:21:53;1.40;82.10
67901;DHT22;54700;51.796;10.956;2024-01-15T03:24:23;1.40;83.00
67901;DHT22;54700;51.796;10.956;2024-01-15T03:26:50;1.50;83.60
67901;DHT22;54700;51.796;10.956;2024-01-15T03:29:17;1.50;84.80
67901;DHT22;54700;51.796;10.956;2024-01-15T03:31:44;1.50;84.70
67901;DHT22;54700;51.796;10.956;2024-01-15T03:34:12;1.50;86.00
67901;DHT22;54700;51.796;10.956;2024-01-15T03:36:39;1.50;87.00
67901;DHT22;54700;51.796;10.956;2024-01-15T03:39:06;1.50;86.50
67901;DHT22;54700;51.796;10.956;2024-01-15T03:41:34;1.50;86.30
67901;DHT22;54700;51.796;10.956;2024-01-15T03:44:00;1.60;86.70
67901;DHT22;54700;51.796;10.956;2024-01-15T03:46:30;1.60;86.80
67901;DHT22;54700;51.796;10.956;2024-01-15T03:48:57;1.70;86.30
67901;DHT22;54700;51.796;10.956;2024-01-15T03:51:25;1.70;86.10
67901;DHT22;54700;51.796;10.956;2024-01-15T03:53:52;1.70;85.20
67901;DHT22;54700;51.796;10.956;2024-01-15T03:56:19;1.80;85.90
67901;DHT22;54700;51.796;10.956;2024-01-15T03:58:46;1.80;85.00
67901;DHT22;54700;51.796;10.956;2024-01-15T04:01:13;1.80;85.10
67901;DHT22;54700;51.796;10.956;2024-01-15T04:03:40;1.80;85.40
67901;DHT22;54700;51.796;10.956;2024-01-15T04:06:07;1.80;85.20
67901;DHT22;54700;51.796;10.956;2024-01-15T04:08:37;1.70;85.90
67901;DHT22;54700;51.796;10.956;2024-01-15T04:11:04;1.70;87.40
67901;DHT22;54700;51.796;10.956;2024-01-15T04:13:32;1.60;87.60
67901;DHT22;54700;51.796;10.956;2024-01-15T04:16:02;1.60;88.50
67901;DHT22;54700;51.796;10.956;2024-01-15T04:18:29;1.60;88.70
67901;DHT22;54700;51.796;10.956;2024-01-15T04:20:56;1.60;88.30
67901;DHT22;54700;51.796;10.956;2024-01-15T04:23:23;1.60;89.10
67901;DHT22;54700;51.796;10.956;2024-01-15T04:25:51;1.60;89.80
67901;DHT22;54700;51.796;10.956;2024-01-15T04:28:18;1.50;90.00
67901;DHT22;54700;51.796;10.956;2024-01-15T04:30:45;1.50;89.80
67901;DHT22;54700;51.796;10.956;2024-01-15T04:33:11;1.50;90.20
67901;DHT22;54700;51.796;10.956;2024-01-15T04:35:39;1.50;90.30
67901;DHT22;54700;51.796;10.956;2024-01-15T04:38:06;1.60;90.10
67901;DHT22;54700;51.796;10.956;2024-01-15T04:40:33;1.60;90.00
67901;DHT22;54700;51.796;10.956;2024-01-15T04:43:01;1.70;90.00
67901;DHT22;54700;51.796;10.956;2024-01-15T04:45:28;1.70;90.40
67901;DHT22;54700;51.796;10.956;2024-01-15T04:47:55;1.70;90.80
67901;DHT22;54700;51.796;10.956;2024-01-15T04:50:23;1.70;90.90
67901;DHT22;54700;51.796;10.956;2024-01-15T04:52:50;1.70;90.80
67901;DHT22;54700;51.796;10.956;2024-01-15T04:55:17;1.70;90.70
67901;DHT22;54700;51.796;10.956;2024-01-15T04:57:45;1.70;90.90
67901;DHT22;54700;51.796;10.956;2024-01-15T05:00:14;1.70;91.00
67901;DHT22;54700;51.796;10.956;2024-01-15T05:02:41;1.70;90.90
67901;DHT22;54700;51.796;10.956;2024-01-15T05:05:08;1.70;91.10
67901;DHT22;54700;51.796;10.956;2024-01-15T05:07:35;1.60;91.20
67901;DHT22;54700;51.796;10.956;2024-01-15T05:10:02;1.60;91.70
67901;DHT22;54700;51.796;10.956;2024-01-15T05:12:29;1.60;92.20
67901;DHT22;54700;51.796;10.956;2024-01-15T05:14:56;1.60;92.40
67901;DHT22;54700;51.796;10.956;2024-01-15T05:17:24;1.60;91.90
67901;DHT22;54700;51.796;10.956;2024-01-15T05:19:51;1.60;91.60
67901;DHT22;54700;51.796;10.956;2024-01-15T05:22:18;1.70;91.70
67901;DHT22;54700;51.796;10.956;2024-01-15T05:24:46;1.70;91.20
67901;DHT22;54700;51.796;10.956;2024-01-15T05:27:13;1.80;90.90
67901;DHT22;54700;51.796;10.956;2024-01-15T05:29:40;1.90;90.80
67901;DHT22;54700;51.796;10.956;2024-01-15T05:32:07;1.90;90.60
67901;DHT22;54700;51.796;10.956;2024-01-15T05:34:34;1.90;90.60
67901;DHT22;54700;51.796;10.956;2024-01-15T05:37:01;2.00;90.70
67901;DHT22;54700;51.796;10.956;2024-01-15T05:39:28;2.00;90.80
67901;DHT22;54700;51.796;10.956;2024-01-15T05:41:55;2.00;90.90
67901;DHT22;54700;51.796;10.956;2024-01-15T05:44:22;2.00;90.80
67901;DHT22;54700;51.796;10.956;2024-01-15T05:46:49;1.90;91.00
67901;DHT22;54700;51.796;10.956;2024-01-15T05:49:19;1.90;90.70
67901;DHT22;54700;51.796;10.956;2024-01-15T05:51:47;1.90;90.80
67901;DHT22;54700;51.796;10.956;2024-01-15T05:54:17;1.90;90.30
67901;DHT22;54700;51.796;10.956;2024-01-15T05:56:54;2.00;90.80
67901;DHT22;54700;51.796;10.956;2024-01-15T06:02:47;1.90;90.30
67901;DHT22;54700;51.796;10.956;2024-01-15T06:05:19;1.90;90.70
67901;DHT22;54700;51.796;10.956;2024-01-15T06:07:51;1.80;90.90
67901;DHT22;54700;51.796;10.956;2024-01-15T06:10:36;1.80;91.10
67901;DHT22;54700;51.796;10.956;2024-01-15T06:13:04;1.90;91.10
67901;DHT22;54700;51.796;10.956;2024-01-15T06:15:40;1.80;91.20
67901;DHT22;54700;51.796;10.956;2024-01-15T06:18:08;1.80;91.50
67901;DHT22;54700;51.796;10.956;2024-01-15T06:20:37;1.80;91.80
67901;DHT22;54700;51.796;10.956;2024-01-15T06:23:06;1.70;92.10
67901;DHT22;54700;51.796;10.956;2024-01-15T06:25:33;1.70;92.50
67901;DHT22;54700;51.796;10.956;2024-01-15T06:28:06;1.70;92.90
67901;DHT22;54700;51.796;10.956;2024-01-15T06:30:33;1.70;93.40
67901;DHT22;54700;51.796;10.956;2024-01-15T06:33:04;1.70;94.50
67901;DHT22;54700;51.796;10.956;2024-01-15T06:35:31;1.60;95.50
67901;DHT22;54700;51.796;10.956;2024-01-15T06:38:01;1.50;96.30
67901;DHT22;54700;51.796;10.956;2024-01-15T06:40:30;1.40;96.50
67901;DHT22;54700;51.796;10.956;2024-01-15T06:42:57;1.40;95.30
67901;DHT22;54700;51.796;10.956;2024-01-15T06:45:24;1.50;95.30
67901;DHT22;54700;51.796;10.956;2024-01-15T06:47:53;1.50;95.30
67901;DHT22;54700;51.796;10.956;2024-01-15T06:50:30;1.50;95.50
67901;DHT22;54700;51.796;10.956;2024-01-15T06:52:57;1.40;95.80
67901;DHT22;54700;51.796;10.956;2024-01-15T06:55:28;1.40;95.90
67901;DHT22;54700;51.796;10.956;2024-01-15T06:58:08;1.40;96.00
67901;DHT22;54700;51.796;10.956;2024-01-15T07:00:35;1.40;95.70
67901;DHT22;54700;51.796;10.956;2024-01-15T07:03:06;1.40;95.20
67901;DHT22;54700;51.796;10.956;2024-01-15T07:05:36;1.50;94.20
67901;DHT22;54700;51.796;10.956;2024-01-15T07:08:08;1.60;93.80
67901;DHT22;54700;51.796;10.956;2024-01-15T07:10:47;1.60;93.30
67901;DHT22;54700;51.796;10.956;2024-01-15T07:13:51;1.60;93.50
67901;DHT22;54700;51.796;10.956;2024-01-15T07:16:34;1.60;93.80
67901;DHT22;54700;51.796;10.956;2024-01-15T07:19:14;1.50;94.10
67901;DHT22;54700;51.796;10.956;2024-01-15T07:21:41;1.50;94.40
67901;DHT22;54700;51.796;10.956;2024-01-15T07:24:17;1.40;94.80
67901;DHT22;54700;51.796;10.956;2024-01-15T07:26:50;1.40;94.90
67901;DHT22;54700;51.796;10.956;2024-01-15T07:29:18;1.40;94.90
67901;DHT22;54700;51.796;10.956;2024-01-15T07:31:49;1.50;94.20
67901;DHT22;54700;51.796;10.956;2024-01-15T07:34:22;1.50;94.10
67901;DHT22;54700;51.796;10.956;2024-01-15T07:36:58;1.50;95.20
67901;DHT22;54700;51.796;10.956;2024-01-15T07:39:31;1.50;96.30
67901;DHT22;54700;51.796;10.956;2024-01-15T07:42:06;1.40;97.00
67901;DHT22;54700;51.796;10.956;2024-01-15T07:44:51;1.40;97.70
67901;DHT22;54700;51.796;10.956;2024-01-15T07:47:40;1.30;98.30
67901;DHT22;54700;51.796;10.956;2024-01-15T07:50:12;1.30;98.80
67901;DHT22;54700;51.796;10.956;2024-01-15T07:52:41;1.30;99.50
67901;DHT22;54700;51.796;10.956;2024-01-15T07:55:08;1.20;99.70
67901;DHT22;54700;51.796;10.956;2024-01-15T07:57:49;1.30;98.90
67901;DHT22;54700;51.796;10.956;2024-01-15T08:00:30;1.40;98.80
67901;DHT22;54700;51.796;10.956;2024-01-15T08:06:25;1.50;96.80
67901;DHT22;54700;51.796;10.956;2024-01-15T08:09:29;1.60;95.60
67901;DHT22;54700;51.796;10.956;2024-01-15T08:12:01;1.70;95.30
67901;DHT22;54700;51.796;10.956;2024-01-15T08:14:48;1.70;94.10
67901;DHT22;54700;51.796;10.956;2024-01-15T08:17:25;1.80;93.20
67901;DHT22;54700;51.796;10.956;2024-01-15T08:20:00;1.80;91.90
67901;DHT22;54700;51.796;10.956;2024-01-15T08:22:42;1.90;91.40
67901;DHT22;54700;51.796;10.956;2024-01-15T08:25:37;1.90;91.50
67901;DHT22;54700;51.796;10.956;2024-01-15T08:28:04;2.00;92.00
67901;DHT22;54700;51.796;10.956;2024-01-15T08:30:36;1.90;92.90
67901;DHT22;54700;51.796;10.956;2024-01-15T08:33:07;1.80;93.80
67901;DHT22;54700;51.796;10.956;2024-01-15T08:38:14;1.80;94.40
67901;DHT22;54700;51.796;10.956;2024-01-15T08:39:04;1.80;95.00
67901;DHT22;54700;51.796;10.956;2024-01-15T08:41:33;1.90;94.60
67901;DHT22;54700;51.796;10.956;2024-01-15T08:44:03;1.90;94.50
67901;DHT22;54700;51.796;10.956;2024-01-15T08:46:32;1.90;94.90
67901;DHT22;54700;51.796;10.956;2024-01-15T08:49:05;1.90;94.70
67901;DHT22;54700;51.796;10.956;2024-01-15T08:51:32;1.90;95.10
67901;DHT22;54700;51.796;10.956;2024-01-15T08:54:09;1.90;95.30
67901;DHT22;54700;51.796;10.956;2024-01-15T08:56:36;1.90;95.40
67901;DHT22;54700;51.796;10.956;2024-01-15T08:59:07;1.90;95.30
67901;DHT22;54700;51.796;10.956;2024-01-15T09:01:39;1.90;94.50
67901;DHT22;54700;51.796;10.956;2024-01-15T09:04:07;1.90;93.60
67901;DHT22;54700;51.796;10.956;2024-01-15T09:06:44;2.00;91.80
67901;DHT22;54700;51.796;10.956;2024-01-15T09:09:12;2.10;91.50
67901;DHT22;54700;51.796;10.956;2024-01-15T09:11:39;2.10;91.20
67901;DHT22;54700;51.796;10.956;2024-01-15T09:14:07;2.20;91.10
67901;DHT22;54700;51.796;10.956;2024-01-15T09:16:34;2.30;89.80
67901;DHT22;54700;51.796;10.956;2024-01-15T09:19:04;2.30;89.50
67901;DHT22;54700;51.796;10.956;2024-01-15T09:21:31;2.40;88.90
67901;DHT22;54700;51.796;10.956;2024-01-15T09:23:58;2.50;87.30
67901;DHT22;54700;51.796;10.956;2024-01-15T09:26:25;2.50;88.20
67901;DHT22;54700;51.796;10.956;2024-01-15T09:28:53;2.50;87.80
67901;DHT22;54700;51.796;10.956;2024-01-15T09:31:24;2.50;87.90
67901;DHT22;54700;51.796;10.956;2024-01-15T09:33:53;2.60;88.60
67901;DHT22;54700;51.796;10.956;2024-01-15T09:36:24;2.50;89.80
67901;DHT22;54700;51.796;10.956;2024-01-15T09:38:53;2.50;90.30
67901;DHT22;54700;51.796;10.956;2024-01-15T09:41:20;2.50;90.90
67901;DHT22;54700;51.796;10.956;2024-01-15T09:43:48;2.50;91.40
67901;DHT22;54700;51.796;10.956;2024-01-15T09:46:16;2.40;91.80
67901;DHT22;54700;51.796;10.956;2024-01-15T09:48:43;2.30;92.20
67901;DHT22;54700;51.796;10.956;2024-01-15T09:51:10;2.30;91.90
67901;DHT22;54700;51.796;10.956;2024-01-15T09:53:42;2.30;91.10
67901;DHT22;54700;51.796;10.956;2024-01-15T09:56:13;2.40;89.70
67901;DHT22;54700;51.796;10.956;2024-01-15T09:58:41;2.40;90.00
67901;DHT22;54700;51.796;10.956;2024-01-15T10:01:09;2.40;90.80
67901;DHT22;54700;51.796;10.956;2024-01-15T10:03:43;2.50;91.60
67901;DHT22;54700;51.796;10.956;2024-01-15T10:06:13;2.40;92.30
67901;DHT22;54700;51.796;10.956;2024-01-15T10:08:45;2.40;92.80
67901;DHT22;54700;51.796;10.956;2024-01-15T10:11:15;2.30;93.00
67901;DHT22;54700;51.796;10.956;2024-01-15T10:13:43;2.30;93.40
67901;DHT22;54700;51.796;10.956;2024-01-15T10:16:17;2.20;93.40
67901;DHT22;54700;51.796;10.956;2024-01-15T10:18:44;2.30;93.60
67901;DHT22;54700;51.796;10.956;2024-01-15T10:21:11;2.30;93.10
67901;DHT22;54700;51.796;10.956;2024-01-15T10:23:38;2.40;91.10
67901;DHT22;54700;51.796;10.956;2024-01-15T10:26:06;2.60;90.10
67901;DHT22;54700;51.796;10.956;2024-01-15T10:28:34;2.70;89.80
67901;DHT22;54700;51.796;10.956;2024-01-15T10:31:04;2.80;87.10
67901;DHT22;54700;51.796;10.956;2024-01-15T10:33:31;2.90;87.00
67901;DHT22;54700;51.796;10.956;2024-01-15T10:36:00;2.90;86.20
67901;DHT22;54700;51.796;10.956;2024-01-15T10:38:28;2.90;85.30
67901;DHT22;54700;51.796;10.956;2024-01-15T10:40:58;2.90;85.00
67901;DHT22;54700;51.796;10.956;2024-01-15T10:43:31;2.90;85.10
67901;DHT22;54700;51.796;10.956;2024-01-15T10:46:03;2.80;85.30
67901;DHT22;54700;51.796;10.956;2024-01-15T10:48:35;2.80;83.40
67901;DHT22;54700;51.796;10.956;2024-01-15T10:51:04;2.70;83.80
67901;DHT22;54700;51.796;10.956;2024-01-15T10:53:38;2.70;84.10
67901;DHT22;54700;51.796;10.956;2024-01-15T10:56:08;2.70;83.70
67901;DHT22;54700;51.796;10.956;2024-01-15T10:58:40;2.70;82.30
67901;DHT22;54700;51.796;10.956;2024-01-15T11:01:20;2.70;82.20
67901;DHT22;54700;51.796;10.956;2024-01-15T11:03:48;2.80;81.00
67901;DHT22;54700;51.796;10.956;2024-01-15T11:06:16;2.80;80.80
67901;DHT22;54700;51.796;10.956;2024-01-15T11:08:45;2.90;80.80
67901;DHT22;54700;51.796;10.956;2024-01-15T11:11:12;2.80;81.00
67901;DHT22;54700;51.796;10.956;2024-01-15T11:13:45;2.80;81.80
67901;DHT22;54700;51.796;10.956;2024-01-15T11:16:18;2.80;81.10
67901;DHT22;54700;51.796;10.956;2024-01-15T11:21:33;2.90;82.00
67901;DHT22;54700;51.796;10.956;2024-01-15T11:24:09;3.00;80.40
67901;DHT22;54700;51.796;10.956;2024-01-15T11:26:43;3.10;80.70
67901;DHT22;54700;51.796;10.956;2024-01-15T11:32:01;3.30;80.00
67901;DHT22;54700;51.796;10.956;2024-01-15T11:37:19;3.30;75.90
67901;DHT22;54700;51.796;10.956;2024-01-15T11:39:50;3.30;76.80
67901;DHT22;54700;51.796;10.956;2024-01-15T11:42:19;3.40;76.70
67901;DHT22;54700;51.796;10.956;2024-01-15T11:44:48;3.40;76.00
67901;DHT22;54700;51.796;10.956;2024-01-15T11:47:16;3.40;74.70
67901;DHT22;54700;51.796;10.956;2024-01-15T11:50:05;3.30;74.60
67901;DHT22;54700;51.796;10.956;2024-01-15T11:52:34;3.30;74.80
67901;DHT22;54700;51.796;10.956;2024-01-15T11:55:08;3.30;74.60
67901;DHT22;54700;51.796;10.956;2024-01-15T11:57:45;3.40;75.00
67901;DHT22;54700;51.796;10.956;2024-01-15T12:00:16;3.50;75.90
67901;DHT22;54700;51.796;10.956;2024-01-15T12:02:44;3.50;74.50
67901;DHT22;54700;51.796;10.956;2024-01-15T12:05:13;3.50;75.00
67901;DHT22;54700;51.796;10.956;2024-01-15T12:07:48;3.40;74.00
67901;DHT22;54700;51.796;10.956;2024-01-15T12:10:19;3.40;73.40
67901;DHT22;54700;51.796;10.956;2024-01-15T12:12:57;3.30;73.90
67901;DHT22;54700;51.796;10.956;2024-01-15T12:15:28;3.20;74.40
67901;DHT22;54700;51.796;10.956;2024-01-15T12:17:59;3.20;74.40
67901;DHT22;54700;51.796;10.956;2024-01-15T12:20:29;3.20;75.00
67901;DHT22;54700;51.796;10.956;2024-01-15T12:22:58;3.10;75.70
67901;DHT22;54700;51.796;10.956;2024-01-15T12:25:33;3.10;76.10
67901;DHT22;54700;51.796;10.956;2024-01-15T12:28:10;3.00;76.70
67901;DHT22;54700;51.796;10.956;2024-01-15T12:30:49;3.00;76.50
67901;DHT22;54700;51.796;10.956;2024-01-15T12:33:17;3.00;77.60
67901;DHT22;54700;51.796;10.956;2024-01-15T12:35:48;2.90;80.60
67901;DHT22;54700;51.796;10.956;2024-01-15T12:38:22;2.90;83.00
67901;DHT22;54700;51.796;10.956;2024-01-15T12:40:50;2.90;83.20
67901;DHT22;54700;51.796;10.956;2024-01-15T12:43:18;2.90;81.20
67901;DHT22;54700;51.796;10.956;2024-01-15T12:45:53;2.90;79.60
67901;DHT22;54700;51.796;10.956;2024-01-15T12:48:23;2.90;81.10
67901;DHT22;54700;51.796;10.956;2024-01-15T12:50:52;2.90;79.10
67901;DHT22;54700;51.796;10.956;2024-01-15T12:53:19;2.90;77.20
67901;DHT22;54700;51.796;10.956;2024-01-15T12:55:48;2.90;76.20
67901;DHT22;54700;51.796;10.956;2024-01-15T12:58:16;2.90;76.70
67901;DHT22;54700;51.796;10.956;2024-01-15T13:00:43;2.80;76.20
67901;DHT22;54700;51.796;10.956;2024-01-15T13:03:14;2.80;76.40
67901;DHT22;54700;51.796;10.956;2024-01-15T13:05:41;2.80;77.70
67901;DHT22;54700;51.796;10.956;2024-01-15T13:08:08;2.70;78.00
67901;DHT22;54700;51.796;10.956;2024-01-15T13:10:35;2.60;78.40
67901;DHT22;54700;51.796;10.956;2024-01-15T13:13:02;2.60;78.40
67901;DHT22;54700;51.796;10.956;2024-01-15T13:15:30;2.60;77.10
67901;DHT22;54700;51.796;10.956;2024-01-15T13:17:57;2.60;75.50
67901;DHT22;54700;51.796;10.956;2024-01-15T13:20:28;2.60;75.70
67901;DHT22;54700;51.796;10.956;2024-01-15T13:22:55;2.60;76.50
67901;DHT22;54700;51.796;10.956;2024-01-15T13:25:29;2.60;76.30
67901;DHT22;54700;51.796;10.956;2024-01-15T13:28:00;2.70;76.30
67901;DHT22;54700;51.796;10.956;2024-01-15T13:30:32;2.70;73.80
67901;DHT22;54700;51.796;10.956;2024-01-15T13:33:00;2.70;71.90
67901;DHT22;54700;51.796;10.956;2024-01-15T13:35:31;2.70;70.30
67901;DHT22;54700;51.796;10.956;2024-01-15T13:37:58;2.60;70.80
67901;DHT22;54700;51.796;10.956;2024-01-15T13:40:29;2.60;69.50
67901;DHT22;54700;51.796;10.956;2024-01-15T13:42:57;2.60;70.40
67901;DHT22;54700;51.796;10.956;2024-01-15T13:45:24;2.50;70.60
67901;DHT22;54700;51.796;10.956;2024-01-15T13:47:59;2.50;71.10
67901;DHT22;54700;51.796;10.956;2024-01-15T13:50:26;2.50;71.70
67901;DHT22;54700;51.796;10.956;2024-01-15T13:52:55;2.40;72.00
67901;DHT22;54700;51.796;10.956;2024-01-15T13:55:22;2.40;71.80
67901;DHT22;54700;51.796;10.956;2024-01-15T13:57:51;2.40;72.40
67901;DHT22;54700;51.796;10.956;2024-01-15T14:00:19;2.40;72.50
67901;DHT22;54700;51.796;10.956;2024-01-15T14:02:46;2.40;73.10
67901;DHT22;54700;51.796;10.956;2024-01-15T14:05:13;2.40;73.10
67901;DHT22;54700;51.796;10.956;2024-01-15T14:07:41;2.40;72.70
67901;DHT22;54700;51.796;10.956;2024-01-15T14:10:10;2.40;72.60
67901;DHT22;54700;51.796;10.956;2024-01-15T14:12:37;2.40;73.40
67901;DHT22;54700;51.796;10.956;2024-01-15T14:15:05;2.40;74.40
67901;DHT22;54700;51.796;10.956;2024-01-15T14:17:32;2.40;74.90
67901;DHT22;54700;51.796;10.956;2024-01-15T14:19:59;2.40;75.10
67901;DHT22;54700;51.796;10.956;2024-01-15T14:22:26;2.30;75.80
67901;DHT22;54700;51.796;10.956;2024-01-15T14:24:55;2.30;76.90
67901;DHT22;54700;51.796;10.956;2024-01-15T14:27:23;2.30;76.70
67901;DHT22;54700;51.796;10.956;2024-01-15T14:29:50;2.20;77.30
67901;DHT22;54700;51.796;10.956;2024-01-15T14:32:18;2.10;77.90
67901;DHT22;54700;51.796;10.956;2024-01-15T14:34:45;2.10;78.20
67901;DHT22;54700;51.796;10.956;2024-01-15T14:37:12;2.10;78.60
67901;DHT22;54700;51.796;10.956;2024-01-15T14:39:38;2.10;78.40
67901;DHT22;54700;51.796;10.956;2024-01-15T14:42:06;2.10;77.80
67901;DHT22;54700;51.796;10.956;2024-01-15T14:44:34;2.10;78.10
67901;DHT22;54700;51.796;10.956;2024-01-15T14:47:03;2.10;77.10
67901;DHT22;54700;51.796;10.956;2024-01-15T14:49:33;2.00;77.30
67901;DHT22;54700;51.796;10.956;2024-01-15T14:52:01;2.00;77.80
67901;DHT22;54700;51.796;10.956;2024-01-15T14:54:29;2.00;78.30
67901;DHT22;54700;51.796;10.956;2024-01-15T14:56:56;2.00;78.80
67901;DHT22;54700;51.796;10.956;2024-01-15T14:59:23;2.00;78.60
67901;DHT22;54700;51.796;10.956;2024-01-15T15:01:51;1.90;78.70
67901;DHT22;54700;51.796;10.956;2024-01-15T15:04:19;1.90;78.80
67901;DHT22;54700;51.796;10.956;2024-01-15T15:06:46;1.90;78.80
67901;DHT22;54700;51.796;10.956;2024-01-15T15:09:13;1.90;78.80
67901;DHT22;54700;51.796;10.956;2024-01-15T15:11:41;1.90;78.00
67901;DHT22;54700;51.796;10.956;2024-01-15T15:14:07;1.90;77.90
67901;DHT22;54700;51.796;10.956;2024-01-15T15:16:34;1.90;77.40
67901;DHT22;54700;51.796;10.956;2024-01-15T15:19:02;1.90;77.50
67901;DHT22;54700;51.796;10.956;2024-01-15T15:21:29;1.90;77.70
67901;DHT22;54700;51.796;10.956;2024-01-15T15:23:56;1.90;78.20
67901;DHT22;54700;51.796;10.956;2024-01-15T15:26:23;1.90;78.90
67901;DHT22;54700;51.796;10.956;2024-01-15T15:28:50;1.90;79.90
67901;DHT22;54700;51.796;10.956;2024-01-15T15:31:17;1.80;80.60
67901;DHT22;54700;51.796;10.956;2024-01-15T15:33:44;1.70;81.20
67901;DHT22;54700;51.796;10.956;2024-01-15T15:36:12;1.70;81.40
67901;DHT22;54700;51.796;10.956;2024-01-15T15:38:39;1.60;81.50
67901;DHT22;54700;51.796;10.956;2024-01-15T15:41:06;1.60;82.40
67901;DHT22;54700;51.796;10.956;2024-01-15T15:43:33;1.60;84.10
67901;DHT22;54700;51.796;10.956;2024-01-15T15:46:00;1.50;84.60
67901;DHT22;54700;51.796;10.956;2024-01-15T15:48:28;1.50;85.20
67901;DHT22;54700;51.796;10.956;2024-01-15T15:50:54;1.40;85.80
67901;DHT22;54700;51.796;10.956;2024-01-15T15:53:23;1.40;86.80
67901;DHT22;54700;51.796;10.956;2024-01-15T15:55:50;1.40;87.30
67901;DHT22;54700;51.796;10.956;2024-01-15T15:58:17;1.30;87.20
67901;DHT22;54700;51.796;10.956;2024-01-15T16:00:45;1.30;87.30